Time;durP1;ratioP1;P1;durP2;ratioP2;P2;SDS_P1;SDS_P2;PMS_P1;PMS_P2;Temp;Humidity;BMP_temperature;BMP_pressure;BME280_temperature;BME280_humidity;BME280_pressure;Samples;Min_cycle;Max_cycle;Signal;HPM_P1;HPM_P2
2021/10/21 00:01:50;;;;;;;9.43;6.00;;;20.50;48.50;;;;;;5076683;28;20998;-90
2021/10/21 00:04:17;;;;;;;6.10;5.00;;;20.40;48.90;;;;;;5075549;28;20448;-90
2021/10/21 00:06:44;;;;;;;10.13;6.77;;;20.40;48.20;;;;;;5075423;28;21011;-89
2021/10/21 00:09:11;;;;;;;8.30;5.90;;;20.30;48.80;;;;;;5075457;28;20435;-89
2021/10/21 00:11:39;;;;;;;8.33;5.50;;;20.30;48.90;;;;;;5076606;28;20484;-89
2021/10/21 00:14:07;;;;;;;11.40;6.57;;;20.10;48.90;;;;;;5077603;28;20446;-89
2021/10/21 00:16:34;;;;;;;11.93;6.30;;;20.00;49.90;;;;;;5076422;28;20891;-88
2021/10/21 00:19:01;;;;;;;12.47;6.77;;;20.10;49.30;;;;;;5076483;28;20716;-88
2021/10/21 00:21:28;;;;;;;11.73;7.03;;;20.20;50.20;;;;;;5076055;28;20447;-88
2021/10/21 00:23:55;;;;;;;10.63;6.67;;;20.00;50.60;;;;;;5075258;28;20485;-88
2021/10/21 00:26:22;;;;;;;8.93;5.97;;;19.90;50.90;;;;;;5075095;28;20482;-88
2021/10/21 00:28:50;;;;;;;8.60;6.37;;;19.90;51.10;;;;;;5075845;28;20999;-89
2021/10/21 00:31:20;;;;;;;12.20;6.50;;;20.10;50.60;;;;;;5075151;28;20443;-89
2021/10/21 00:33:47;;;;;;;5.00;4.80;;;20.00;51.20;;;;;;5077206;28;20498;-89
2021/10/21 00:36:14;;;;;;;8.83;6.47;;;20.10;50.30;;;;;;5075995;28;20513;-89
2021/10/21 00:38:41;;;;;;;11.03;6.90;;;19.80;52.40;;;;;;5075708;28;21018;-89
2021/10/21 00:41:08;;;;;;;11.83;6.50;;;19.80;52.80;;;;;;5077572;28;20975;-89
2021/10/21 00:43:36;;;;;;;13.70;6.67;;;19.80;52.50;;;;;;5076286;28;20467;-89
2021/10/21 00:46:05;;;;;;;7.40;5.77;;;20.10;51.80;;;;;;5076828;28;20800;-89
2021/10/21 00:48:34;;;;;;;8.77;6.17;;;20.10;52.20;;;;;;5076399;28;20961;-89
2021/10/21 00:51:01;;;;;;;14.50;6.10;;;19.80;52.90;;;;;;5076031;28;20463;-89
2021/10/21 00:53:30;;;;;;;8.37;5.77;;;19.70;53.30;;;;;;5076029;28;20514;-89
2021/10/21 00:55:57;;;;;;;10.37;5.80;;;19.70;53.30;;;;;;5075164;28;20461;-89
2021/10/21 00:58:24;;;;;;;11.50;6.40;;;19.60;53.10;;;;;;5077657;28;20455;-89
2021/10/21 01:00:54;;;;;;;20.43;7.00;;;19.60;53.80;;;;;;5080891;28;20734;-89
2021/10/21 01:03:20;;;;;;;11.30;6.73;;;19.60;53.60;;;;;;5075744;28;20447;-89
2021/10/21 01:05:50;;;;;;;11.07;5.80;;;19.60;53.20;;;;;;5074896;28;20452;-89
2021/10/21 01:08:17;;;;;;;9.47;5.70;;;19.30;53.10;;;;;;5075030;28;20473;-89
2021/10/21 01:10:44;;;;;;;14.23;5.90;;;19.80;52.80;;;;;;5075152;28;20439;-89
2021/10/21 01:13:11;;;;;;;7.10;5.53;;;19.60;53.40;;;;;;5075581;28;20467;-89
2021/10/21 01:15:38;;;;;;;8.60;6.20;;;19.70;53.10;;;;;;5074621;28;20456;-89
2021/10/21 01:18:05;;;;;;;10.47;7.00;;;19.80;53.40;;;;;;5074749;28;20806;-89
2021/10/21 01:20:34;;;;;;;11.67;6.40;;;19.80;53.30;;;;;;5075223;28;20454;-89
2021/10/21 01:23:01;;;;;;;16.80;6.87;;;19.80;52.90;;;;;;5075201;28;20441;-89
2021/10/21 01:25:28;;;;;;;6.70;5.80;;;19.80;53.50;;;;;;5074465;28;21015;-89
2021/10/21 01:27:55;;;;;;;10.37;7.13;;;19.80;52.80;;;;;;5074830;28;20479;-89
2021/10/21 01:30:24;;;;;;;10.67;6.53;;;19.50;54.40;;;;;;5074775;28;20451;-89
2021/10/21 01:32:52;;;;;;;9.80;6.70;;;19.60;53.90;;;;;;5074424;28;20535;-89
2021/10/21 01:35:19;;;;;;;19.47;8.47;;;19.60;53.60;;;;;;5074607;28;20531;-89
2021/10/21 01:37:48;;;;;;;12.20;7.50;;;19.70;54.00;;;;;;5074863;28;20501;-89
2021/10/21 01:40:16;;;;;;;13.40;6.80;;;19.60;54.30;;;;;;5074976;28;20478;-89
2021/10/21 01:42:43;;;;;;;10.73;6.90;;;19.20;55.90;;;;;;5073986;28;20451;-89
2021/10/21 01:45:19;;;;;;;8.70;6.43;;;19.10;56.60;;;;;;5074434;28;20447;-89
2021/10/21 01:47:46;;;;;;;11.83;6.17;;;19.00;57.70;;;;;;5074271;28;20841;-89
2021/10/21 01:50:13;;;;;;;14.47;7.37;;;19.20;57.00;;;;;;5074302;28;20555;-89
2021/10/21 01:52:40;;;;;;;9.87;6.20;;;19.40;56.80;;;;;;5074474;28;20479;-89
2021/10/21 01:55:09;;;;;;;14.20;7.77;;;19.60;55.70;;;;;;5075105;28;20544;-89
2021/10/21 01:57:37;;;;;;;13.10;7.37;;;19.70;54.70;;;;;;5074407;28;20479;-89
2021/10/21 02:00:04;;;;;;;8.67;6.43;;;19.80;56.20;;;;;;5074594;28;20443;-89
2021/10/21 02:02:31;;;;;;;7.23;6.23;;;19.80;55.30;;;;;;5073921;28;20481;-89
2021/10/21 02:04:58;;;;;;;8.97;6.50;;;20.00;55.20;;;;;;5073522;28;20474;-90
2021/10/21 02:07:25;;;;;;;7.50;5.60;;;19.90;55.20;;;;;;5073114;28;20554;-89
2021/10/21 02:09:52;;;;;;;9.87;5.83;;;19.90;54.60;;;;;;5073971;28;20489;-90
2021/10/21 02:12:20;;;;;;;8.60;6.87;;;20.10;54.20;;;;;;5074539;28;20492;-89
2021/10/21 02:14:47;;;;;;;10.73;6.87;;;20.20;54.50;;;;;;5076009;28;20520;-90
2021/10/21 02:17:14;;;;;;;10.10;7.43;;;20.00;55.20;;;;;;5074466;28;20543;-89
2021/10/21 02:19:41;;;;;;;15.10;8.77;;;20.00;55.40;;;;;;5075155;28;20871;-89
2021/10/21 02:22:08;;;;;;;15.37;9.43;;;20.00;54.70;;;;;;5075425;28;20459;-89
2021/10/21 02:24:35;;;;;;;11.30;7.57;;;20.00;55.50;;;;;;5073983;28;20511;-89
2021/10/21 02:27:02;;;;;;;9.70;6.30;;;19.80;56.30;;;;;;5073784;28;20907;-89
2021/10/21 02:29:30;;;;;;;12.93;7.23;;;19.90;56.10;;;;;;5073972;28;20513;-89
2021/10/21 02:31:57;;;;;;;15.67;7.50;;;20.00;54.80;;;;;;5073987;28;20450;-89
2021/10/21 02:34:24;;;;;;;8.70;6.03;;;20.00;55.80;;;;;;5073453;28;20974;-89
2021/10/21 02:36:51;;;;;;;9.23;6.17;;;19.90;56.00;;;;;;5073796;28;20571;-89
2021/10/21 02:39:18;;;;;;;15.23;5.90;;;19.80;56.10;;;;;;5073542;28;20601;-89
2021/10/21 02:41:45;;;;;;;7.70;6.30;;;19.50;57.40;;;;;;5074282;28;20487;-89
2021/10/21 02:44:12;;;;;;;8.60;6.17;;;19.10;57.90;;;;;;5073999;28;20455;-89
2021/10/21 02:46:40;;;;;;;8.57;5.93;;;19.20;57.90;;;;;;5073831;28;20486;-88
2021/10/21 02:49:07;;;;;;;7.70;5.90;;;19.50;57.50;;;;;;5074053;28;20543;-88
2021/10/21 02:51:34;;;;;;;8.00;5.67;;;19.50;56.80;;;;;;5073749;28;20483;-88
2021/10/21 02:54:01;;;;;;;8.30;5.10;;;19.30;58.00;;;;;;5073685;28;20542;-88
2021/10/21 02:56:28;;;;;;;7.03;5.63;;;19.40;57.60;;;;;;5073817;28;20467;-88
2021/10/21 02:58:55;;;;;;;7.47;5.40;;;19.00;58.50;;;;;;5073681;28;20466;-89
2021/10/21 03:01:22;;;;;;;8.57;5.17;;;19.00;58.90;;;;;;5073056;28;20998;-88
2021/10/21 03:03:50;;;;;;;6.30;5.20;;;19.00;58.70;;;;;;5080127;28;20443;-88
2021/10/21 03:06:17;;;;;;;7.93;5.90;;;18.90;59.00;;;;;;5085175;28;20493;-88
2021/10/21 03:08:44;;;;;;;9.37;5.50;;;18.90;59.30;;;;;;5082766;28;20475;-88
2021/10/21 03:11:11;;;;;;;14.60;6.50;;;18.60;60.10;;;;;;5074855;28;20455;-88
2021/10/21 03:13:38;;;;;;;8.83;4.40;;;18.60;60.40;;;;;;5073972;28;20802;-88
2021/10/21 03:16:05;;;;;;;7.00;5.63;;;18.70;59.30;;;;;;5074185;28;20556;-87
2021/10/21 03:18:32;;;;;;;7.63;4.13;;;18.70;59.80;;;;;;5075797;28;20435;-88
2021/10/21 03:21:00;;;;;;;5.67;4.27;;;18.60;59.00;;;;;;5079905;28;20924;-88
2021/10/21 03:23:27;;;;;;;6.40;5.00;;;18.00;61.30;;;;;;5075720;28;20455;-88
2021/10/21 03:25:55;;;;;;;8.57;4.63;;;17.90;62.40;;;;;;5073355;28;20464;-88
2021/10/21 03:28:22;;;;;;;9.53;5.10;;;17.90;61.90;;;;;;5078705;28;20559;-87
2021/10/21 03:30:49;;;;;;;6.70;4.17;;;17.80;62.10;;;;;;5076640;28;20533;-88
2021/10/21 03:33:16;;;;;;;7.53;3.40;;;18.00;61.70;;;;;;5074930;28;20459;-88
2021/10/21 03:35:43;;;;;;;6.00;4.10;;;18.00;61.60;;;;;;5073132;28;20498;-87
2021/10/21 03:38:12;;;;;;;6.20;4.53;;;17.50;63.40;;;;;;5073872;28;20482;-87
2021/10/21 03:40:38;;;;;;;6.37;3.60;;;17.60;63.60;;;;;;5073166;28;20466;-87
2021/10/21 03:43:05;;;;;;;4.53;3.43;;;17.50;63.90;;;;;;5072652;28;20510;-89
2021/10/21 03:45:32;;;;;;;5.53;3.30;;;17.50;63.90;;;;;;5072434;28;20455;-88
2021/10/21 03:47:59;;;;;;;6.20;3.17;;;17.30;64.30;;;;;;5072293;28;20467;-89
2021/10/21 03:50:28;;;;;;;4.00;3.20;;;17.40;64.40;;;;;;5072483;28;20493;-89
2021/10/21 03:52:55;;;;;;;13.53;2.77;;;17.40;64.00;;;;;;5072315;28;20766;-89
2021/10/21 03:55:23;;;;;;;3.27;2.90;;;17.00;64.80;;;;;;5072265;28;20475;-89
2021/10/21 03:57:50;;;;;;;3.20;2.90;;;17.10;64.60;;;;;;5072423;28;20487;-89
2021/10/21 04:00:17;;;;;;;3.27;2.53;;;17.20;64.10;;;;;;5072313;28;20439;-89
2021/10/21 04:02:44;;;;;;;3.53;2.10;;;17.10;62.50;;;;;;5072199;28;20556;-89
2021/10/21 04:05:11;;;;;;;2.80;2.57;;;17.00;62.70;;;;;;5072586;28;20502;-89
2021/10/21 04:07:38;;;;;;;3.90;2.73;;;17.10;62.10;;;;;;5076461;28;20882;-89
2021/10/21 04:10:05;;;;;;;2.50;2.10;;;16.80;59.00;;;;;;5076808;28;20972;-89
2021/10/21 04:12:34;;;;;;;5.00;2.17;;;16.90;57.40;;;;;;5076583;28;20463;-88
2021/10/21 04:15:01;;;;;;;1.90;1.90;;;16.80;55.00;;;;;;5076530;28;20957;-89
2021/10/21 04:17:28;;;;;;;8.13;2.00;;;16.80;55.70;;;;;;5076470;28;20484;-89
2021/10/21 04:19:54;;;;;;;2.13;1.97;;;16.90;55.40;;;;;;5076051;28;20887;-89
2021/10/21 04:22:21;;;;;;;2.40;2.17;;;16.90;55.80;;;;;;5076467;28;20475;-89
2021/10/21 04:24:48;;;;;;;3.40;2.20;;;17.10;56.00;;;;;;5076353;28;20485;-88
2021/10/21 04:27:15;;;;;;;5.53;2.10;;;16.90;54.40;;;;;;5076337;28;20506;-89
2021/10/21 04:29:44;;;;;;;3.13;2.10;;;16.90;53.30;;;;;;5074987;28;20534;-89
2021/10/21 04:32:11;;;;;;;3.63;2.47;;;16.70;53.10;;;;;;5076211;28;20471;-89
2021/10/21 04:34:38;;;;;;;2.57;2.00;;;17.00;55.30;;;;;;5076268;28;20516;-89
2021/10/21 04:37:04;;;;;;;2.27;2.07;;;17.00;51.70;;;;;;5076076;28;20474;-89
2021/10/21 04:39:31;;;;;;;3.10;2.07;;;16.80;52.90;;;;;;5076160;28;20636;-91
2021/10/21 04:41:58;;;;;;;4.63;2.10;;;16.60;52.00;;;;;;5075885;28;20475;-89
2021/10/21 04:44:25;;;;;;;7.73;2.60;;;16.60;51.80;;;;;;5076031;28;20931;-88
2021/10/21 04:46:53;;;;;;;2.23;1.90;;;16.50;52.40;;;;;;5076016;28;20475;-88
2021/10/21 04:49:21;;;;;;;3.60;2.13;;;16.30;53.10;;;;;;5076753;28;20810;-88
2021/10/21 04:51:48;;;;;;;3.10;2.07;;;16.40;52.90;;;;;;5077941;28;20447;-88
2021/10/21 04:54:14;;;;;;;2.90;2.60;;;16.40;52.90;;;;;;5078022;28;20606;-88
2021/10/21 04:56:44;;;;;;;4.33;2.13;;;16.30;52.50;;;;;;5075518;28;20888;-87
2021/10/21 04:59:11;;;;;;;4.53;2.20;;;16.20;51.50;;;;;;5074852;28;20470;-89
2021/10/21 05:01:38;;;;;;;3.47;1.80;;;16.20;51.10;;;;;;5075035;28;20764;-89
2021/10/21 05:04:07;;;;;;;3.20;2.17;;;16.20;51.00;;;;;;5075305;28;20440;-89
2021/10/21 05:06:34;;;;;;;8.27;2.10;;;16.20;51.80;;;;;;5075011;28;20556;-88
2021/10/21 05:09:00;;;;;;;5.57;2.10;;;15.90;50.60;;;;;;5074708;28;20561;-88
2021/10/21 05:11:27;;;;;;;8.20;3.00;;;15.70;52.10;;;;;;5074707;28;20554;-88
2021/10/21 05:13:54;;;;;;;10.93;2.40;;;15.70;50.40;;;;;;5074653;28;20465;-89
2021/10/21 05:16:21;;;;;;;5.50;2.27;;;15.70;50.00;;;;;;5074354;28;20843;-89
2021/10/21 05:18:48;;;;;;;5.90;2.70;;;15.50;51.30;;;;;;5074783;28;20448;-88
2021/10/21 05:21:16;;;;;;;9.53;2.67;;;15.40;49.50;;;;;;5074744;28;20448;-89
2021/10/21 05:23:43;;;;;;;7.50;2.30;;;15.20;50.70;;;;;;5075365;28;20538;-89
2021/10/21 05:26:10;;;;;;;6.67;2.80;;;15.30;52.10;;;;;;5075461;28;20506;-88
2021/10/21 05:28:37;;;;;;;11.83;2.80;;;15.40;50.00;;;;;;5074903;28;20479;-86
2021/10/21 05:31:04;;;;;;;6.60;2.37;;;15.30;48.50;;;;;;5074168;28;20440;-87
2021/10/21 05:33:35;;;;;;;11.67;2.67;;;15.50;47.60;;;;;;5075346;28;20498;-87
2021/10/21 05:36:03;;;;;;;8.60;2.60;;;15.40;50.90;;;;;;5075244;28;20476;-87
2021/10/21 05:38:32;;;;;;;4.30;2.20;;;15.20;48.80;;;;;;5074804;28;20488;-88
2021/10/21 05:40:59;;;;;;;20.70;2.87;;;15.20;47.90;;;;;;5075895;28;20523;-87
2021/10/21 05:43:26;;;;;;;5.10;2.60;;;15.10;48.50;;;;;;5075255;28;20439;-87
2021/10/21 05:45:53;;;;;;;21.93;3.37;;;15.20;47.30;;;;;;5074953;28;20832;-87
2021/10/21 05:48:20;;;;;;;6.20;2.50;;;15.20;50.90;;;;;;5075094;28;20499;-87
2021/10/21 05:50:47;;;;;;;6.50;2.90;;;15.20;47.30;;;;;;5074451;28;20493;-87
2021/10/21 05:53:15;;;;;;;15.40;3.20;;;15.10;47.60;;;;;;5073989;28;20432;-87
2021/10/21 05:55:43;;;;;;;15.13;2.60;;;15.50;46.50;;;;;;5075335;28;20917;-88
2021/10/21 05:58:13;;;;;;;13.33;2.83;;;15.50;47.50;;;;;;5076455;28;20455;-87
2021/10/21 06:00:40;;;;;;;5.83;2.63;;;15.30;46.60;;;;;;5074605;28;20454;-86
2021/10/21 06:03:07;;;;;;;32.67;3.40;;;15.00;46.30;;;;;;5074388;28;20587;-88
2021/10/21 06:05:34;;;;;;;6.70;2.70;;;15.20;46.30;;;;;;5073839;28;20458;-87
2021/10/21 06:08:01;;;;;;;5.57;2.33;;;15.30;46.60;;;;;;5073945;28;20576;-87
2021/10/21 06:10:28;;;;;;;8.40;2.50;;;15.30;46.50;;;;;;5076114;28;20508;-87
2021/10/21 06:12:58;;;;;;;9.00;2.50;;;15.20;49.30;;;;;;5074768;28;20523;-87
2021/10/21 06:15:27;;;;;;;13.63;3.37;;;15.20;47.30;;;;;;5077079;28;20501;-87
2021/10/21 06:17:55;;;;;;;16.60;2.80;;;14.80;50.70;;;;;;5075353;28;20479;-88
2021/10/21 06:20:22;;;;;;;10.30;2.77;;;15.00;48.00;;;;;;5074125;28;20510;-87
2021/10/21 06:22:49;;;;;;;12.87;4.27;;;14.90;46.20;;;;;;5074363;28;20504;-88
2021/10/21 06:25:17;;;;;;;17.40;3.37;;;15.00;47.80;;;;;;5075046;28;20517;-87
2021/10/21 06:27:44;;;;;;;13.67;3.03;;;15.00;46.00;;;;;;5075206;28;20459;-88
2021/10/21 06:30:12;;;;;;;9.83;2.77;;;15.20;49.50;;;;;;5075704;28;20505;-87
2021/10/21 06:32:39;;;;;;;14.70;4.33;;;15.20;45.60;;;;;;5074511;28;20503;-87
2021/10/21 06:35:08;;;;;;;11.53;3.27;;;15.30;46.10;;;;;;5074899;28;20481;-87
2021/10/21 06:37:35;;;;;;;21.53;3.90;;;15.60;47.70;;;;;;5074549;28;20497;-87
2021/10/21 06:40:02;;;;;;;11.53;3.60;;;15.40;48.00;;;;;;5074617;28;20505;-87
2021/10/21 06:42:28;;;;;;;8.17;2.83;;;15.50;45.50;;;;;;5074711;28;20545;-86
2021/10/21 06:44:55;;;;;;;15.83;3.93;;;15.50;44.90;;;;;;5075264;28;20453;-87
2021/10/21 06:47:24;;;;;;;12.83;2.83;;;15.60;47.60;;;;;;5074888;28;20530;-88
2021/10/21 06:49:51;;;;;;;12.47;3.37;;;15.20;44.40;;;;;;5074514;28;20475;-88
2021/10/21 06:52:20;;;;;;;10.00;3.70;;;14.90;46.20;;;;;;5074974;28;20896;-88
2021/10/21 06:54:47;;;;;;;9.03;2.80;;;15.10;47.20;;;;;;5073987;28;20467;-88
2021/10/21 06:57:15;;;;;;;11.97;3.00;;;15.00;45.20;;;;;;5074544;28;20462;-88
2021/10/21 06:59:42;;;;;;;9.17;3.10;;;14.90;46.10;;;;;;5074397;28;20546;-88
2021/10/21 07:02:09;;;;;;;14.00;2.57;;;14.80;45.90;;;;;;5074059;28;20512;-88
2021/10/21 07:04:37;;;;;;;18.13;3.70;;;15.60;46.10;;;;;;5074173;28;20497;-89
2021/10/21 07:07:04;;;;;;;11.63;2.50;;;15.30;44.50;;;;;;5074104;28;20498;-88
2021/10/21 07:09:31;;;;;;;18.10;3.20;;;14.90;46.80;;;;;;5073750;28;20475;-88
2021/10/21 07:11:58;;;;;;;12.67;3.10;;;15.10;45.30;;;;;;5074507;28;20451;-88
2021/10/21 07:14:25;;;;;;;17.00;3.67;;;15.10;45.00;;;;;;5072437;28;20436;-88
2021/10/21 07:16:52;;;;;;;10.63;3.27;;;15.10;48.60;;;;;;5073320;28;20995;-88
2021/10/21 07:19:19;;;;;;;20.93;3.00;;;14.90;44.90;;;;;;5073520;28;20446;-88
2021/10/21 07:21:48;;;;;;;11.73;3.77;;;15.40;45.40;;;;;;5073116;28;20542;-88
2021/10/21 07:24:15;;;;;;;7.73;2.30;;;15.80;43.40;;;;;;5074518;28;20891;-89
2021/10/21 07:26:42;;;;;;;13.73;3.20;;;15.90;42.40;;;;;;5073356;28;20474;-88
2021/10/21 07:29:09;;;;;;;6.63;2.40;;;15.50;43.10;;;;;;5081927;28;20570;-87
2021/10/21 07:31:36;;;;;;;17.27;3.70;;;15.20;42.90;;;;;;5083939;28;20443;-89
2021/10/21 07:34:07;;;;;;;17.40;3.00;;;15.50;43.30;;;;;;5080158;28;20940;-88
2021/10/21 07:36:34;;;;;;;4.60;2.53;;;15.30;44.50;;;;;;5075132;28;20472;-88
2021/10/21 07:39:03;;;;;;;18.93;2.70;;;15.40;47.50;;;;;;5074056;28;20448;-88
2021/10/21 07:41:30;;;;;;;8.43;3.50;;;15.50;46.40;;;;;;5076828;28;20439;-88
2021/10/21 07:43:57;;;;;;;20.93;2.90;;;15.50;42.70;;;;;;5077782;28;20459;-88
2021/10/21 07:46:24;;;;;;;7.80;2.73;;;15.50;44.10;;;;;;5077538;28;20475;-88
2021/10/21 07:48:51;;;;;;;18.93;2.97;;;15.60;45.60;;;;;;5079841;28;20509;-88
2021/10/21 07:51:18;;;;;;;13.33;3.30;;;15.80;41.50;;;;;;5077779;28;20440;-88
2021/10/21 07:53:46;;;;;;;7.47;2.90;;;15.70;43.00;;;;;;5077506;28;20451;-89
2021/10/21 07:56:19;;;;;;;10.93;2.77;;;16.00;41.00;;;;;;5081159;28;20451;-88
2021/10/21 07:58:46;;;;;;;8.00;2.33;;;15.90;43.70;;;;;;5083049;28;20442;-88
2021/10/21 08:01:13;;;;;;;3.03;1.93;;;16.70;41.50;;;;;;5078175;28;20562;-86
2021/10/21 08:03:40;;;;;;;7.67;2.20;;;16.90;41.60;;;;;;5077792;28;20509;-86
2021/10/21 08:06:07;;;;;;;9.30;2.50;;;16.70;41.60;;;;;;5078459;28;20529;-87
2021/10/21 08:08:34;;;;;;;6.53;2.07;;;16.70;40.20;;;;;;5077556;28;20479;-86
2021/10/21 08:11:01;;;;;;;4.00;2.30;;;16.10;39.40;;;;;;5076843;28;20435;-87
2021/10/21 08:13:30;;;;;;;7.20;2.60;;;16.40;41.30;;;;;;5076763;28;20944;-87
2021/10/21 08:15:57;;;;;;;7.17;2.50;;;15.80;40.70;;;;;;5077185;28;20565;-86
2021/10/21 08:18:24;;;;;;;10.07;2.53;;;15.60;43.30;;;;;;5080623;28;20754;-87
2021/10/21 08:20:51;;;;;;;5.80;2.20;;;15.70;43.00;;;;;;5077314;28;20865;-87
2021/10/21 08:23:19;;;;;;;6.47;3.30;;;15.90;40.80;;;;;;5076916;28;20916;-86
2021/10/21 08:25:46;;;;;;;5.93;2.50;;;16.50;41.30;;;;;;5081151;28;20471;-87
2021/10/21 08:28:13;;;;;;;4.13;2.10;;;16.30;44.60;;;;;;5079200;28;20440;-87
2021/10/21 08:30:43;;;;;;;5.40;2.20;;;16.10;41.70;;;;;;5079334;28;20500;-86
2021/10/21 08:33:12;;;;;;;10.43;2.80;;;16.40;41.30;;;;;;5076975;28;20428;-86
2021/10/21 08:35:39;;;;;;;5.03;2.10;;;16.60;41.40;;;;;;5076445;28;20451;-86
2021/10/21 08:38:06;;;;;;;9.10;2.77;;;16.70;39.00;;;;;;5076397;28;20451;-86
2021/10/21 08:40:36;;;;;;;5.90;2.20;;;16.80;39.50;;;;;;5077596;28;20810;-86
2021/10/21 08:43:05;;;;;;;3.70;1.90;;;16.50;41.20;;;;;;5078081;28;20467;-86
2021/10/21 08:45:32;;;;;;;6.70;2.20;;;16.30;39.80;;;;;;5078715;28;20468;-87
2021/10/21 08:48:03;;;;;;;5.17;2.67;;;16.20;40.50;;;;;;5076529;28;20424;-87
2021/10/21 08:50:32;;;;;;;8.30;2.30;;;16.40;42.90;;;;;;5076723;28;20497;-87
2021/10/21 08:52:59;;;;;;;7.17;2.30;;;16.50;39.00;;;;;;5075811;28;20443;-87
2021/10/21 08:55:27;;;;;;;6.73;2.57;;;16.30;41.10;;;;;;5084518;28;20534;-90
2021/10/21 08:57:54;;;;;;;6.60;2.20;;;16.70;40.00;;;;;;5098924;28;20463;-90
2021/10/21 09:00:21;;;;;;;4.63;2.30;;;16.20;40.30;;;;;;5099531;28;20416;-89
2021/10/21 09:02:51;;;;;;;3.30;2.20;;;16.40;43.70;;;;;;5099404;28;20415;-90
2021/10/21 09:05:29;;;;;;;15.83;2.30;;;16.80;39.50;;;;;;5099287;28;20506;-89
2021/10/21 09:08:11;;;;;;;9.17;2.80;;;16.60;40.40;;;;;;5099561;27;20446;-89
2021/10/21 09:10:49;;;;;;;4.53;2.20;;;16.40;39.50;;;;;;5099147;28;20471;-90
2021/10/21 09:13:24;;;;;;;20.23;2.20;;;16.30;41.00;;;;;;5099166;28;20491;-89
2021/10/21 09:15:54;;;;;;;4.07;1.83;;;16.50;43.50;;;;;;5096784;28;20450;-87
2021/10/21 09:18:21;;;;;;;6.50;1.93;;;16.40;41.30;;;;;;5078932;28;20513;-87
2021/10/21 09:20:50;;;;;;;4.57;2.00;;;16.70;43.10;;;;;;5077607;28;20577;-87
2021/10/21 09:23:18;;;;;;;15.20;2.97;;;16.60;40.30;;;;;;5076779;28;20498;-88
2021/10/21 09:25:46;;;;;;;6.17;2.20;;;16.70;40.20;;;;;;5076328;28;20825;-88
2021/10/21 09:28:19;;;;;;;4.63;2.13;;;16.90;42.80;;;;;;5075920;28;20493;-87
2021/10/21 09:30:52;;;;;;;7.60;2.27;;;16.90;39.60;;;;;;5076079;28;20939;-87
2021/10/21 09:33:18;;;;;;;4.17;2.10;;;16.90;40.60;;;;;;5075050;28;20463;-86
2021/10/21 09:35:55;;;;;;;3.97;2.03;;;17.00;41.80;;;;;;5075553;28;20467;-87
2021/10/21 09:38:26;;;;;;;6.47;1.83;;;17.00;42.80;;;;;;5075710;28;20909;-86
2021/10/21 09:40:54;;;;;;;9.60;2.50;;;16.80;43.20;;;;;;5076663;28;20925;-86
2021/10/21 09:43:31;;;;;;;2.80;1.97;;;16.80;44.00;;;;;;5075867;28;20438;-86
2021/10/21 09:45:59;;;;;;;5.03;2.00;;;16.30;46.80;;;;;;5076393;28;20466;-88
2021/10/21 09:48:26;;;;;;;4.83;2.17;;;16.20;44.70;;;;;;5075063;28;20435;-87
2021/10/21 09:50:54;;;;;;;8.03;2.40;;;16.10;44.40;;;;;;5078201;28;20899;-86
2021/10/21 09:53:23;;;;;;;3.73;2.20;;;16.40;46.20;;;;;;5077518;28;20489;-86
2021/10/21 09:55:51;;;;;;;3.33;2.20;;;16.20;45.90;;;;;;5077744;28;20976;-86
2021/10/21 09:58:22;;;;;;;3.50;2.13;;;16.50;46.20;;;;;;5078586;28;20482;-86
2021/10/21 10:00:49;;;;;;;3.50;1.90;;;16.30;45.10;;;;;;5077812;28;20500;-86
2021/10/21 10:03:18;;;;;;;5.00;2.03;;;16.10;44.70;;;;;;5076912;28;20888;-86
2021/10/21 10:05:47;;;;;;;7.80;2.97;;;16.30;48.60;;;;;;5078647;28;20474;-86
2021/10/21 10:08:16;;;;;;;2.83;1.83;;;16.20;48.60;;;;;;5079428;28;20447;-87
2021/10/21 10:10:45;;;;;;;2.07;1.80;;;15.70;49.30;;;;;;5077759;28;20509;-86
2021/10/21 10:13:13;;;;;;;7.83;2.10;;;16.10;48.10;;;;;;5077616;28;20499;-86
2021/10/21 10:15:44;;;;;;;4.53;2.10;;;15.60;49.10;;;;;;5077448;28;20470;-86
2021/10/21 10:18:15;;;;;;;4.77;2.20;;;15.50;47.80;;;;;;5077832;28;20435;-87
2021/10/21 10:20:44;;;;;;;5.40;2.40;;;15.10;50.80;;;;;;5078052;28;20460;-87
2021/10/21 10:23:13;;;;;;;3.20;2.03;;;15.00;49.90;;;;;;5076158;28;20941;-86
2021/10/21 10:25:53;;;;;;;9.03;3.90;;;15.30;52.90;;;;;;5074746;28;20562;-87
2021/10/21 10:28:20;;;;;;;3.40;2.10;;;15.70;49.40;;;;;;5076062;28;20493;-87
2021/10/21 10:30:50;;;;;;;4.63;2.30;;;15.90;47.30;;;;;;5075480;28;20521;-87
2021/10/21 10:33:40;;;;;;;3.17;2.00;;;15.20;49.50;;;;;;5075086;28;20523;-87
2021/10/21 10:36:26;;;;;;;5.53;2.20;;;15.10;48.70;;;;;;5074875;28;20530;-87
2021/10/21 10:38:53;;;;;;;4.60;2.63;;;15.10;48.60;;;;;;5074879;28;20497;-88
2021/10/21 10:41:53;;;;;;;5.03;2.93;;;14.90;49.00;;;;;;5074659;28;20953;-87
2021/10/21 10:44:58;;;;;;;3.30;1.90;;;15.20;48.10;;;;;;5075209;28;20447;-87
2021/10/21 10:47:46;;;;;;;3.30;2.30;;;15.10;47.70;;;;;;5076773;28;20510;-87
2021/10/21 10:50:38;;;;;;;4.17;1.87;;;15.70;46.30;;;;;;5078930;28;20475;-87
2021/10/21 10:53:07;;;;;;;3.20;1.90;;;15.90;45.10;;;;;;5077221;28;20466;-87
2021/10/21 10:55:38;;;;;;;8.00;2.73;;;16.60;45.00;;;;;;5076239;28;20535;-87
2021/10/21 10:58:10;;;;;;;4.27;1.80;;;16.50;43.80;;;;;;5076913;28;20459;-86
2021/10/21 11:00:45;;;;;;;2.70;1.80;;;16.90;41.70;;;;;;5076850;28;20436;-88
2021/10/21 11:03:13;;;;;;;3.80;2.00;;;16.70;46.00;;;;;;5076522;28;20575;-87
2021/10/21 11:05:57;;;;;;;4.13;2.10;;;16.70;43.20;;;;;;5075653;28;20477;-87
2021/10/21 11:08:49;;;;;;;3.23;2.00;;;16.10;41.00;;;;;;5077135;28;20443;-87
2021/10/21 11:11:41;;;;;;;5.97;2.23;;;16.30;47.90;;;;;;5075989;28;20536;-87
2021/10/21 11:14:12;;;;;;;6.53;2.20;;;17.10;40.40;;;;;;5076057;28;20467;-88
2021/10/21 11:16:44;;;;;;;2.57;1.83;;;17.00;39.70;;;;;;5083054;28;20538;-87
2021/10/21 11:19:13;;;;;;;4.73;1.87;;;16.50;42.60;;;;;;5088699;28;20516;-88
2021/10/21 11:21:52;;;;;;;6.13;2.13;;;15.90;40.80;;;;;;5085793;28;20477;-88
2021/10/21 11:25:00;;;;;;;3.60;1.90;;;15.80;43.50;;;;;;5083306;28;20432;-87
2021/10/21 11:27:30;;;;;;;4.03;2.00;;;16.30;41.20;;;;;;5081720;28;20427;-88
2021/10/21 11:30:09;;;;;;;3.97;1.90;;;16.60;40.50;;;;;;5082843;28;20478;-88
2021/10/21 11:32:38;;;;;;;3.83;1.93;;;16.60;40.50;;;;;;5087827;28;20446;-88
2021/10/21 11:35:08;;;;;;;4.80;2.23;;;16.00;39.00;;;;;;5095580;28;20451;-87
2021/10/21 11:37:37;;;;;;;4.70;2.00;;;15.80;41.60;;;;;;5091056;28;20443;-87
2021/10/21 11:40:05;;;;;;;5.13;2.00;;;16.30;40.90;;;;;;5084188;28;20952;-88
2021/10/21 11:42:32;;;;;;;6.80;2.33;;;16.60;40.80;;;;;;5081083;28;20427;-88
2021/10/21 11:45:05;;;;;;;5.10;2.10;;;16.50;40.80;;;;;;5080764;28;20475;-88
2021/10/21 11:47:34;;;;;;;2.57;1.93;;;16.10;37.50;;;;;;5080259;28;20536;-87
2021/10/21 11:50:01;;;;;;;4.23;2.20;;;16.10;38.10;;;;;;5080994;28;20553;-88
2021/10/21 11:52:40;;;;;;;2.83;1.93;;;16.20;37.70;;;;;;5093094;28;20687;-88
2021/10/21 11:55:08;;;;;;;11.30;3.37;;;17.00;36.90;;;;;;5095709;28;20482;-88
2021/10/21 11:57:35;;;;;;;4.13;2.20;;;16.70;37.30;;;;;;5084950;28;20463;-88
2021/10/21 12:00:19;;;;;;;3.77;2.00;;;16.30;39.40;;;;;;5081538;28;20432;-88
2021/10/21 12:02:46;;;;;;;9.20;3.10;;;16.20;38.80;;;;;;5082679;28;20451;-88
2021/10/21 12:05:14;;;;;;;3.57;2.03;;;17.00;41.80;;;;;;5082635;28;20550;-88
2021/10/21 12:07:41;;;;;;;2.97;2.20;;;17.80;36.20;;;;;;5086313;28;20443;-87
2021/10/21 12:10:08;;;;;;;10.10;2.37;;;17.60;35.50;;;;;;5081122;28;21022;-87
2021/10/21 12:12:40;;;;;;;2.77;2.10;;;16.60;38.30;;;;;;5080114;28;20548;-88
2021/10/21 12:15:10;;;;;;;11.60;2.40;;;16.40;39.20;;;;;;5079817;28;20466;-86
2021/10/21 12:17:38;;;;;;;8.50;2.40;;;16.50;39.00;;;;;;5078949;28;20478;-87
2021/10/21 12:20:07;;;;;;;4.73;2.33;;;16.60;39.30;;;;;;5081024;28;20447;-88
2021/10/21 12:22:37;;;;;;;5.00;2.20;;;16.50;41.90;;;;;;5080164;28;20451;-87
2021/10/21 12:25:08;;;;;;;9.77;2.60;;;17.30;40.60;;;;;;5079965;28;20589;-87
2021/10/21 12:27:35;;;;;;;5.40;2.23;;;17.70;36.30;;;;;;5076793;28;20488;-87
2021/10/21 12:30:04;;;;;;;4.83;2.20;;;18.00;38.20;;;;;;5077029;28;20478;-87
2021/10/21 12:32:31;;;;;;;3.20;2.20;;;17.80;37.90;;;;;;5076798;28;20523;-87
2021/10/21 12:35:07;;;;;;;11.20;2.67;;;18.00;40.30;;;;;;5077229;28;20455;-88
2021/10/21 12:37:40;;;;;;;9.50;3.03;;;18.30;37.30;;;;;;5077082;28;20446;-86
2021/10/21 12:40:17;;;;;;;4.47;2.00;;;18.10;35.80;;;;;;5085334;28;20463;-87
2021/10/21 12:42:44;;;;;;;3.27;1.87;;;17.90;39.20;;;;;;5098768;28;20439;-87
2021/10/21 12:45:19;;;;;;;3.63;2.40;;;18.10;37.10;;;;;;5095965;28;20526;-87
2021/10/21 12:47:46;;;;;;;3.60;2.07;;;18.00;37.80;;;;;;5097365;28;20392;-88
2021/10/21 12:50:16;;;;;;;3.37;2.03;;;18.10;38.50;;;;;;5097809;28;20459;-87
2021/10/21 12:52:45;;;;;;;10.80;2.30;;;18.30;38.00;;;;;;5096494;28;20446;-87